Time;durP1;ratioP1;P1;durP2;ratioP2;P2;SDS_P1;SDS_P2;PMS_P1;PMS_P2;Temp;Humidity;BMP_temperature;BMP_pressure;BME280_temperature;BME280_humidity;BME280_pressure;Samples;Min_cycle;Max_cycle;Signal;HPM_P1;HPM_P2
2023/05/16 00:00:20;;;;;;;6.67;3.30;;;;;;;8.73;100.00;101154.78;7391829;19;20427;-43
2023/05/16 00:02:50;;;;;;;7.83;3.17;;;;;;;8.73;100.00;101149.63;7387531;19;20466;-41
2023/05/16 00:05:22;;;;;;;7.67;2.60;;;;;;;8.76;100.00;101149.81;7391000;19;20894;-42
2023/05/16 00:07:52;;;;;;;4.33;2.60;;;;;;;8.76;100.00;101147.25;7383455;19;20450;-43
2023/05/16 00:10:22;;;;;;;6.03;2.57;;;;;;;8.80;100.00;101149.97;7391702;19;20408;-41
2023/05/16 00:12:51;;;;;;;4.50;2.50;;;;;;;8.75;100.00;101157.44;7388560;19;20447;-41
2023/05/16 00:15:22;;;;;;;5.53;2.80;;;;;;;8.77;100.00;101149.00;7390754;19;20974;-42
2023/05/16 00:17:56;;;;;;;6.70;3.00;;;;;;;8.75;100.00;101162.59;7389442;19;20799;-41
2023/05/16 00:20:30;;;;;;;6.10;2.67;;;;;;;8.82;100.00;101158.69;7391726;19;20411;-40
2023/05/16 00:23:01;;;;;;;7.07;2.77;;;;;;;8.82;100.00;101156.97;7388170;19;20498;-40
2023/05/16 00:25:31;;;;;;;6.73;2.60;;;;;;;8.84;100.00;101159.63;7390758;19;20993;-42
2023/05/16 00:28:00;;;;;;;8.03;3.73;;;;;;;8.82;100.00;101168.97;7388871;19;20829;-43
2023/05/16 00:30:30;;;;;;;5.67;3.23;;;;;;;8.81;100.00;101159.47;7392364;19;20773;-40
2023/05/16 00:32:59;;;;;;;10.90;3.20;;;;;;;8.82;100.00;101168.97;7388578;19;20435;-40
2023/05/16 00:35:32;;;;;;;9.20;3.27;;;;;;;8.82;100.00;101166.41;7392318;19;20443;-42
2023/05/16 00:38:01;;;;;;;6.90;3.10;;;;;;;8.87;100.00;101164.97;7388513;19;20482;-43
2023/05/16 00:40:31;;;;;;;10.03;3.63;;;;;;;8.89;100.00;101160.78;7390917;19;20754;-43
2023/05/16 00:43:01;;;;;;;9.17;3.47;;;;;;;8.84;100.00;101177.66;7388269;19;20447;-41
2023/05/16 00:45:30;;;;;;;7.23;3.10;;;;;;;8.82;100.00;101177.56;7391718;19;20462;-45
2023/05/16 00:48:00;;;;;;;3.57;2.40;;;;;;;8.82;100.00;101174.97;7389234;19;20443;-42
2023/05/16 00:50:32;;;;;;;7.70;2.90;;;;;;;8.84;100.00;101178.56;7392896;19;20414;-43
2023/05/16 00:53:01;;;;;;;4.43;2.40;;;;;;;8.88;100.00;101174.44;7388432;19;20450;-42
2023/05/16 00:55:31;;;;;;;6.67;3.00;;;;;;;8.94;100.00;101177.38;7396748;19;20470;-44
2023/05/16 00:58:01;;;;;;;7.87;2.90;;;;;;;8.91;100.00;101179.75;7396373;19;20481;-42
2023/05/16 01:00:30;;;;;;;6.73;2.60;;;;;;;8.93;100.00;101178.19;7398652;19;20879;-43
2023/05/16 01:03:00;;;;;;;6.90;2.73;;;;;;;9.02;100.00;101173.53;7396144;19;20465;-41
2023/05/16 01:05:32;;;;;;;5.77;3.00;;;;;;;9.02;100.00;101182.91;7397264;19;20431;-42
2023/05/16 01:08:02;;;;;;;7.33;3.00;;;;;;;9.06;100.00;101179.72;7395726;19;20461;-42
2023/05/16 01:10:35;;;;;;;9.30;3.50;;;;;;;9.06;100.00;101184.88;7398679;19;20747;-45
2023/05/16 01:13:12;;;;;;;5.37;2.67;;;;;;;9.08;100.00;101182.38;7395803;19;20443;-41
2023/05/16 01:15:47;;;;;;;6.03;2.90;;;;;;;9.07;100.00;101190.91;7396763;19;20444;-42
2023/05/16 01:18:23;;;;;;;5.70;2.57;;;;;;;9.12;100.00;101187.78;7399032;19;20451;-43
2023/05/16 01:20:59;;;;;;;5.80;2.50;;;;;;;9.08;100.00;101183.25;7397041;19;20405;-43
2023/05/16 01:23:42;;;;;;;7.73;2.73;;;;;;;9.12;100.00;101189.47;7396205;19;20415;-40
2023/05/16 01:26:17;;;;;;;5.80;2.70;;;;;;;9.12;100.00;101184.34;7393387;19;20838;-40
2023/05/16 01:28:48;;;;;;;8.30;3.10;;;;;;;9.12;100.00;101186.91;7396486;19;20415;-42
2023/05/16 01:31:18;;;;;;;6.80;2.40;;;;;;;9.05;100.00;101189.16;7393837;19;20415;-43
2023/05/16 01:33:48;;;;;;;7.93;3.70;;;;;;;9.10;100.00;101186.81;7395088;19;20947;-43
2023/05/16 01:36:23;;;;;;;8.33;3.47;;;;;;;9.14;100.00;101187.88;7395428;19;20412;-42
2023/05/16 01:39:01;;;;;;;6.03;3.30;;;;;;;9.12;100.00;101181.75;7396658;19;20415;-42
2023/05/16 01:41:40;;;;;;;6.70;3.87;;;;;;;9.13;100.00;101189.53;7393238;19;20447;-40
2023/05/16 01:44:15;;;;;;;8.30;3.70;;;;;;;9.15;100.00;101187.06;7395734;19;20794;-42
2023/05/16 01:46:47;;;;;;;10.63;3.70;;;;;;;9.10;100.00;101185.91;7392744;19;20435;-43
2023/05/16 01:49:21;;;;;;;11.90;4.00;;;;;;;9.08;100.00;101178.09;7399147;19;20525;-41
2023/05/16 01:51:54;;;;;;;13.00;4.37;;;;;;;9.23;100.00;101172.91;7392212;19;21083;-40
2023/05/16 01:54:26;;;;;;;11.43;3.20;;;;;;;9.42;100.00;101168.75;7397984;19;20451;-42
2023/05/16 01:56:59;;;;;;;44.53;21.23;;;;;;;9.46;100.00;101178.41;7393083;19;20998;-40
2023/05/16 01:59:29;;;;;;;20.47;4.43;;;;;;;9.38;100.00;101192.56;7396637;19;20427;-44
2023/05/16 02:01:59;;;;;;;6.53;2.13;;;;;;;9.30;100.00;101193.06;7392462;19;20479;-46
2023/05/16 02:04:29;;;;;;;9.67;4.33;;;;;;;10.11;100.00;101194.63;7396335;19;21038;-44
2023/05/16 02:06:59;;;;;;;10.37;2.20;;;;;;;9.52;100.00;101212.22;7385062;19;20982;-41
2023/05/16 02:09:28;;;;;;;7.97;2.07;;;;;;;9.30;100.00;101216.22;7395997;19;20958;-44
2023/05/16 02:12:01;;;;;;;11.10;2.40;;;;;;;9.31;100.00;101207.69;7391470;19;20443;-42
2023/05/16 02:14:31;;;;;;;10.97;1.60;;;;;;;9.03;100.00;101215.59;7396291;19;20450;-41
2023/05/16 02:17:01;;;;;;;6.53;2.03;;;;;;;8.97;100.00;101223.84;7392372;19;20982;-40
2023/05/16 02:19:30;;;;;;;6.17;2.17;;;;;;;8.97;100.00;101225.56;7396351;19;20404;-43
2023/05/16 02:22:00;;;;;;;8.50;2.20;;;;;;;8.93;100.00;101224.50;7391629;19;20443;-41
2023/05/16 02:24:29;;;;;;;5.20;1.67;;;;;;;8.85;100.00;101221.47;7395298;19;20985;-45
2023/05/16 02:27:01;;;;;;;10.77;2.17;;;;;;;8.93;100.00;101224.50;7393317;19;20444;-43
2023/05/16 02:29:31;;;;;;;7.23;1.87;;;;;;;8.86;100.00;101219.78;7397080;19;21077;-43
2023/05/16 02:32:00;;;;;;;9.07;2.30;;;;;;;8.90;100.00;101212.34;7391861;19;20468;-43
2023/05/16 02:34:30;;;;;;;9.60;2.87;;;;;;;9.01;100.00;101217.19;7397981;19;20480;-41
2023/05/16 02:36:59;;;;;;;9.13;1.60;;;;;;;8.95;100.00;101217.75;7393366;19;20444;-43
2023/05/16 02:39:30;;;;;;;15.57;2.80;;;;;;;9.00;100.00;101218.88;7399251;19;20408;-42
2023/05/16 02:42:02;;;;;;;8.37;2.50;;;;;;;8.90;100.00;101214.00;7395371;19;20447;-41
2023/05/16 02:44:32;;;;;;;11.77;2.97;;;;;;;8.90;100.00;101219.16;7400842;19;20464;-41
2023/05/16 02:47:01;;;;;;;5.37;2.10;;;;;;;8.88;100.00;101216.50;7396431;19;20462;-44
2023/05/16 02:49:31;;;;;;;8.43;2.47;;;;;;;8.83;100.00;101223.09;7397659;19;20412;-45
2023/05/16 02:52:00;;;;;;;16.67;3.00;;;;;;;8.82;100.00;101217.84;7392253;19;20454;-44
2023/05/16 02:54:30;;;;;;;13.60;2.10;;;;;;;8.72;100.00;101225.03;7395870;19;20450;-44
2023/05/16 02:57:02;;;;;;;8.43;2.53;;;;;;;8.82;100.00;101230.72;7392176;19;20466;-40
2023/05/16 02:59:32;;;;;;;9.67;2.20;;;;;;;8.82;100.00;101234.16;7395565;19;20415;-42
2023/05/16 03:02:01;;;;;;;8.53;2.50;;;;;;;8.75;100.00;101242.34;7391359;19;20446;-43
2023/05/16 03:04:31;;;;;;;13.37;3.00;;;;;;;8.78;100.00;101230.53;7394935;19;20443;-43
2023/05/16 03:07:00;;;;;;;8.70;2.00;;;;;;;8.77;100.00;101244.19;7391483;19;20452;-41
2023/05/16 03:09:30;;;;;;;11.33;2.13;;;;;;;8.78;100.00;101242.53;7395240;19;20427;-41
2023/05/16 03:12:02;;;;;;;15.33;2.90;;;;;;;8.76;100.00;101234.72;7390764;19;20436;-41
2023/05/16 03:14:31;;;;;;;6.50;1.90;;;;;;;8.74;100.00;101241.47;7396243;19;20447;-42
2023/05/16 03:17:01;;;;;;;15.83;2.80;;;;;;;8.72;100.00;101240.47;7390939;19;20435;-41
2023/05/16 03:19:30;;;;;;;8.73;2.00;;;;;;;8.71;100.00;101237.84;7394942;19;20439;-43
2023/05/16 03:22:00;;;;;;;12.70;2.67;;;;;;;8.69;100.00;101240.31;7390182;19;20815;-43
2023/05/16 03:24:30;;;;;;;9.57;2.43;;;;;;;8.70;100.00;101238.63;7394191;19;20518;-41
2023/05/16 03:27:02;;;;;;;6.43;2.27;;;;;;;8.63;100.00;101239.97;7390133;19;20472;-41
2023/05/16 03:29:32;;;;;;;14.20;3.10;;;;;;;8.64;100.00;101250.34;7394855;19;20423;-44
2023/05/16 03:32:01;;;;;;;15.50;2.90;;;;;;;8.63;100.00;101237.41;7390137;19;20470;-43
2023/05/16 03:34:31;;;;;;;14.33;2.73;;;;;;;8.71;100.00;101242.97;7394544;19;20815;-43
2023/05/16 03:37:00;;;;;;;11.40;2.30;;;;;;;8.55;100.00;101241.22;7389943;19;20444;-42
2023/05/16 03:39:30;;;;;;;16.10;2.67;;;;;;;8.57;100.00;101249.91;7394990;19;21065;-42
2023/05/16 03:42:02;;;;;;;14.50;2.10;;;;;;;8.48;100.00;101248.53;7389759;19;20483;-42
2023/05/16 03:44:31;;;;;;;14.20;2.30;;;;;;;8.51;100.00;101253.88;7388399;19;20442;-43
2023/05/16 03:47:01;;;;;;;11.67;2.80;;;;;;;8.54;100.00;101260.91;7389844;19;20470;-42
2023/05/16 03:49:30;;;;;;;13.10;2.43;;;;;;;8.50;100.00;101252.09;7394092;19;20439;-41
2023/05/16 03:52:00;;;;;;;8.73;2.23;;;;;;;8.46;100.00;101260.41;7389819;19;20443;-41
2023/05/16 03:54:30;;;;;;;9.07;2.50;;;;;;;8.43;100.00;101257.66;7393991;19;20448;-47
2023/05/16 03:57:02;;;;;;;19.03;3.10;;;;;;;8.44;100.00;101262.00;7389487;19;20443;-41
2023/05/16 03:59:33;;;;;;;12.50;2.07;;;;;;;8.38;100.00;101264.22;7393402;19;20959;-43
2023/05/16 04:02:02;;;;;;;13.90;2.60;;;;;;;8.33;100.00;101257.91;7389804;19;20463;-43
2023/05/16 04:04:32;;;;;;;9.90;2.37;;;;;;;8.37;100.00;101265.03;7392815;19;20458;-42
2023/05/16 04:07:03;;;;;;;11.03;2.20;;;;;;;8.45;100.00;101261.22;7389270;19;20435;-43
2023/05/16 04:09:32;;;;;;;16.13;2.50;;;;;;;8.44;100.00;101259.44;7394252;19;20407;-44
2023/05/16 04:12:05;;;;;;;17.03;2.63;;;;;;;8.51;100.00;101253.88;7389012;19;21042;-44
2023/05/16 04:14:35;;;;;;;12.80;2.87;;;;;;;8.54;100.00;101255.75;7391757;19;20455;-43
2023/05/16 04:17:05;;;;;;;12.43;2.30;;;;;;;8.47;100.00;101258.72;7390657;19;20443;-40
2023/05/16 04:19:34;;;;;;;12.33;2.20;;;;;;;8.47;100.00;101248.44;7391837;19;20486;-44
2023/05/16 04:22:04;;;;;;;8.57;2.30;;;;;;;8.51;100.00;101255.53;7388763;19;20447;-40
2023/05/16 04:24:34;;;;;;;15.83;2.70;;;;;;;8.47;100.00;101259.59;7391307;19;20443;-41
2023/05/16 04:27:07;;;;;;;21.13;3.03;;;;;;;8.46;100.00;101252.69;7389841;19;20446;-42
2023/05/16 04:29:37;;;;;;;9.43;2.03;;;;;;;8.38;100.00;101253.94;7394736;19;20438;-43
2023/05/16 04:32:08;;;;;;;9.83;2.40;;;;;;;8.42;100.00;101248.19;7395348;19;20435;-44
2023/05/16 04:34:37;;;;;;;21.33;2.70;;;;;;;8.40;100.00;101249.75;7398020;19;20447;-43
2023/05/16 04:37:09;;;;;;;12.70;1.97;;;;;;;8.40;100.00;101262.63;7396166;19;20439;-41
2023/05/16 04:39:38;;;;;;;7.70;2.33;;;;;;;8.46;100.00;101259.53;7397191;19;20431;-44
2023/05/16 04:42:11;;;;;;;10.17;1.97;;;;;;;8.42;100.00;101250.75;7394392;19;20981;-42
2023/05/16 04:44:41;;;;;;;14.43;1.87;;;;;;;8.45;100.00;101256.06;7397275;19;20962;-42
2023/05/16 04:47:10;;;;;;;10.80;2.10;;;;;;;8.46;100.00;101246.69;7394775;19;20471;-43
2023/05/16 04:49:40;;;;;;;9.83;2.20;;;;;;;8.45;100.00;101222.63;7397017;19;20433;-41
2023/05/16 04:52:10;;;;;;;10.43;2.07;;;;;;;8.41;100.00;101219.81;7394443;19;20808;-40
2023/05/16 04:54:39;;;;;;;11.00;2.03;;;;;;;8.33;100.00;101198.78;7398142;19;20450;-40
2023/05/16 04:57:12;;;;;;;9.43;1.90;;;;;;;8.30;100.00;101193.47;7394683;19;20455;-43
2023/05/16 04:59:41;;;;;;;14.20;2.10;;;;;;;8.22;100.00;101173.31;7397027;19;20419;-45
2023/05/16 05:02:11;;;;;;;9.60;1.70;;;;;;;8.22;100.00;101186.19;7393936;19;20431;-43
2023/05/16 05:04:41;;;;;;;15.13;1.97;;;;;;;8.19;100.00;101151.69;7395810;19;20459;-42
2023/05/16 05:07:10;;;;;;;14.40;2.23;;;;;;;8.21;100.00;101137.28;7394741;19;20470;-42
2023/05/16 05:09:41;;;;;;;18.17;3.23;;;;;;;8.22;100.00;101136.47;7396773;19;20439;-41
2023/05/16 05:12:13;;;;;;;14.70;2.10;;;;;;;8.13;100.00;101123.97;7394026;19;20439;-44
2023/05/16 05:14:43;;;;;;;15.07;1.70;;;;;;;8.11;100.00;101123.00;7396427;19;20443;-42
2023/05/16 05:17:12;;;;;;;7.37;1.50;;;;;;;8.13;100.00;101118.84;7395022;19;20450;-46
2023/05/16 05:19:42;;;;;;;16.40;1.83;;;;;;;8.21;100.00;101112.44;7399369;19;20752;-40
2023/05/16 05:22:11;;;;;;;8.53;1.50;;;;;;;8.14;100.00;101112.88;7393809;19;20461;-41
2023/05/16 05:24:41;;;;;;;10.43;1.90;;;;;;;8.22;100.00;101093.63;7396067;19;20451;-41
2023/05/16 05:27:13;;;;;;;8.70;1.70;;;;;;;8.24;100.00;101081.78;7392283;19;20442;-41
2023/05/16 05:29:43;;;;;;;7.70;1.70;;;;;;;8.42;100.00;101083.63;7396407;19;20949;-43
2023/05/16 05:32:12;;;;;;;10.03;3.10;;;;;;;8.83;100.00;101063.56;7393162;19;20439;-42
2023/05/16 05:34:42;;;;;;;7.67;1.80;;;;;;;8.81;100.00;101051.41;7396182;19;20472;-42
2023/05/16 05:37:11;;;;;;;12.00;2.17;;;;;;;8.88;100.00;101045.78;7393954;19;20431;-42
2023/05/16 05:39:41;;;;;;;30.73;13.40;;;;;;;9.25;100.00;101070.91;7398448;19;20420;-41
2023/05/16 05:42:13;;;;;;;21.57;3.90;;;;;;;9.18;100.00;101007.03;7390314;19;20490;-41
2023/05/16 05:44:43;;;;;;;14.97;1.70;;;;;;;9.02;100.00;100988.19;7395447;19;20466;-42
2023/05/16 05:47:12;;;;;;;17.83;2.30;;;;;;;8.98;100.00;101000.84;7392020;19;20994;-40
2023/05/16 05:49:42;;;;;;;6.37;1.60;;;;;;;8.76;100.00;101003.16;7395659;19;20433;-41
2023/05/16 05:52:11;;;;;;;10.90;1.70;;;;;;;8.74;100.00;101016.75;7393860;19;20438;-43
2023/05/16 05:54:41;;;;;;;11.67;1.87;;;;;;;8.63;100.00;101022.19;7394988;19;20454;-42
2023/05/16 05:57:13;;;;;;;15.53;2.60;;;;;;;8.65;100.00;101022.28;7393137;19;20820;-50
2023/05/16 05:59:42;;;;;;;10.50;3.07;;;;;;;8.68;100.00;101034.41;7395367;19;20403;-41
2023/05/16 06:02:12;;;;;;;10.53;2.03;;;;;;;8.73;100.00;101026.13;7391870;19;20443;-44
2023/05/16 06:04:44;;;;;;;12.40;2.67;;;;;;;8.76;100.00;100995.44;7395103;19;20449;-40
2023/05/16 06:07:15;;;;;;;14.70;4.10;;;;;;;8.83;100.00;100985.47;7391708;19;20443;-41
2023/05/16 06:09:45;;;;;;;5.40;1.87;;;;;;;8.93;100.00;100971.41;7398152;19;20537;-41
2023/05/16 06:12:17;;;;;;;13.40;2.17;;;;;;;8.97;100.00;100935.59;7392145;19;20526;-43
2023/05/16 06:14:47;;;;;;;10.93;2.47;;;;;;;8.98;100.00;100918.47;7395305;19;20443;-42
2023/05/16 06:17:16;;;;;;;15.30;1.57;;;;;;;8.97;100.00;100891.84;7392433;19;20443;-43
2023/05/16 06:19:46;;;;;;;9.80;2.20;;;;;;;9.01;100.00;100922.09;7395415;19;20423;-42
2023/05/16 06:22:16;;;;;;;9.30;1.40;;;;;;;9.02;100.00;100904.94;7391820;19;20996;-44
2023/05/16 06:24:45;;;;;;;8.10;1.40;;;;;;;9.02;100.00;100905.84;7395312;19;20474;-41
2023/05/16 06:27:17;;;;;;;9.40;1.47;;;;;;;9.01;100.00;100896.34;7392051;19;20439;-43
2023/05/16 06:29:47;;;;;;;15.13;2.17;;;;;;;9.10;100.00;100915.63;7394582;19;20766;-41
2023/05/16 06:32:16;;;;;;;20.80;2.20;;;;;;;9.09;100.00;100917.34;7392190;19;20459;-40
2023/05/16 06:34:46;;;;;;;10.30;1.97;;;;;;;9.10;100.00;100916.53;7394031;19;20970;-42
2023/05/16 06:37:15;;;;;;;13.77;2.10;;;;;;;9.25;100.00;100880.38;7392128;19;20439;-44
2023/05/16 06:39:46;;;;;;;10.27;1.80;;;;;;;9.25;100.00;100871.75;7394747;19;20408;-42
2023/05/16 06:42:19;;;;;;;14.97;1.63;;;;;;;9.23;100.00;100863.94;7391161;19;20459;-42
2023/05/16 06:44:49;;;;;;;11.27;1.40;;;;;;;9.30;100.00;100876.34;7394224;19;20863;-44
2023/05/16 06:47:18;;;;;;;9.03;1.23;;;;;;;9.43;100.00;100889.78;7390960;19;20489;-41
2023/05/16 06:49:48;;;;;;;13.30;1.90;;;;;;;9.48;100.00;100884.88;7394358;19;20423;-45
2023/05/16 06:52:18;;;;;;;9.27;1.67;;;;;;;9.43;100.00;100889.78;7389780;19;21001;-42
2023/05/16 06:54:47;;;;;;;8.83;1.73;;;;;;;9.38;100.00;100893.84;7393474;19;20519;-40
2023/05/16 06:57:19;;;;;;;11.40;1.90;;;;;;;9.34;100.00;100912.53;7391862;19;21102;-43
2023/05/16 06:59:49;;;;;;;8.73;1.73;;;;;;;9.22;100.00;100928.25;7393737;19;20411;-42
2023/05/16 07:02:18;;;;;;;14.13;2.47;;;;;;;9.29;100.00;100928.63;7388018;19;21152;-41
2023/05/16 07:04:48;;;;;;;9.20;1.80;;;;;;;9.48;100.00;100908.91;7393962;19;20853;-45
2023/05/16 07:07:17;;;;;;;11.57;1.60;;;;;;;9.53;100.00;100909.16;7391406;19;20449;-41
2023/05/16 07:09:47;;;;;;;10.93;1.53;;;;;;;9.52;100.00;100886.78;7393799;19;20414;-41
2023/05/16 07:12:19;;;;;;;10.20;1.87;;;;;;;9.54;100.00;100880.88;7389268;19;20475;-43
2023/05/16 07:14:49;;;;;;;7.23;1.50;;;;;;;9.56;100.00;100875.81;7393184;19;20455;-41
2023/05/16 07:17:19;;;;;;;10.73;3.00;;;;;;;9.53;100.00;100897.16;7390248;19;20439;-41
2023/05/16 07:19:48;;;;;;;14.17;2.37;;;;;;;9.54;100.00;100904.06;7394746;19;20407;-44
2023/05/16 07:22:18;;;;;;;7.80;1.43;;;;;;;9.45;100.00;100896.78;7390252;19;20447;-40
2023/05/16 07:24:47;;;;;;;10.60;2.10;;;;;;;9.56;100.00;100868.09;7393047;19;20515;-41
2023/05/16 07:27:20;;;;;;;15.27;2.27;;;;;;;9.65;100.00;100849.59;7390110;19;20521;-43
2023/05/16 07:29:51;;;;;;;6.33;1.27;;;;;;;9.72;100.00;100842.25;7390060;19;20406;-42
2023/05/16 07:32:21;;;;;;;10.10;2.63;;;;;;;9.81;100.00;100857.25;7390820;19;20459;-41
2023/05/16 07:34:51;;;;;;;8.00;1.80;;;;;;;9.79;100.00;100853.69;7393716;19;20455;-42
2023/05/16 07:37:20;;;;;;;20.10;3.13;;;;;;;9.76;100.00;100863.88;7391809;19;20461;-43
2023/05/16 07:39:50;;;;;;;6.30;1.03;;;;;;;9.77;100.00;100852.75;7393180;19;20403;-40
2023/05/16 07:42:22;;;;;;;9.57;1.40;;;;;;;9.72;100.00;100895.47;7389696;19;20539;-41
2023/05/16 07:44:51;;;;;;;6.63;1.23;;;;;;;9.76;100.00;100922.25;7392903;19;20449;-43
2023/05/16 07:47:21;;;;;;;8.43;1.53;;;;;;;9.96;100.00;100907.75;7390117;19;20527;-45
2023/05/16 07:49:51;;;;;;;8.30;0.90;;;;;;;10.15;100.00;100936.94;7393021;19;20424;-42
2023/05/16 07:52:21;;;;;;;9.93;1.30;;;;;;;10.30;100.00;100940.22;7389205;19;20464;-41
2023/05/16 07:54:50;;;;;;;9.90;1.47;;;;;;;10.43;100.00;100933.06;7391978;19;20447;-42
2023/05/16 07:57:23;;;;;;;6.50;1.27;;;;;;;10.44;100.00;100930.56;7391239;19;20546;-42
2023/05/16 07:59:53;;;;;;;11.27;1.30;;;;;;;10.58;100.00;100931.19;7392668;19;20803;-43
2023/05/16 08:02:24;;;;;;;6.40;1.73;;;;;;;10.59;100.00;100935.53;7389316;19;20448;-42
2023/05/16 08:04:54;;;;;;;10.70;2.03;;;;;;;10.71;100.00;100953.25;7389566;19;20436;-42
2023/05/16 08:07:23;;;;;;;7.67;1.30;;;;;;;10.74;100.00;100996.38;7389787;19;20460;-42
2023/05/16 08:09:53;;;;;;;10.17;1.73;;;;;;;10.85;100.00;101026.16;7392824;19;20415;-42
2023/05/16 08:12:26;;;;;;;9.90;1.30;;;;;;;10.94;100.00;101023.09;7388460;19;20448;-43
2023/05/16 08:14:55;;;;;;;7.40;1.30;;;;;;;11.11;100.00;101031.59;7392863;19;20450;-44
2023/05/16 08:17:25;;;;;;;6.87;1.33;;;;;;;11.16;100.00;100996.50;7389980;19;20875;-42
2023/05/16 08:19:55;;;;;;;9.67;1.63;;;;;;;11.11;100.00;101012.59;7391238;19;20436;-40
2023/05/16 08:22:24;;;;;;;13.93;2.83;;;;;;;11.18;100.00;101018.13;7389114;19;20444;-42
2023/05/16 08:24:56;;;;;;;14.47;2.37;;;;;;;11.24;100.00;100999.44;7392405;19;20455;-41
2023/05/16 08:27:29;;;;;;;8.37;1.63;;;;;;;11.43;100.00;100995.91;7389534;19;20456;-41
2023/05/16 08:29:59;;;;;;;7.43;1.50;;;;;;;11.42;100.00;100982.94;7391636;19;20418;-40
2023/05/16 08:32:28;;;;;;;12.67;2.37;;;;;;;11.13;100.00;101024.78;7388283;19;20923;-43
2023/05/16 08:34:58;;;;;;;16.60;2.40;;;;;;;10.64;100.00;101000.25;7392849;19;20450;-44
2023/05/16 08:37:27;;;;;;;16.20;2.37;;;;;;;10.94;100.00;101000.72;7389740;19;20436;-42
2023/05/16 08:39:57;;;;;;;8.63;1.30;;;;;;;11.23;100.00;101017.44;7392159;19;20407;-42
2023/05/16 08:42:29;;;;;;;11.37;2.10;;;;;;;10.82;100.00;101033.72;7388990;19;20465;-42
2023/05/16 08:44:59;;;;;;;6.70;1.60;;;;;;;11.09;100.00;101043.56;7392517;19;20499;-42
2023/05/16 08:47:29;;;;;;;12.50;1.77;;;;;;;11.34;100.00;101048.06;7389048;19;20984;-43
2023/05/16 08:49:59;;;;;;;9.83;2.13;;;;;;;11.53;100.00;101041.13;7391738;19;20406;-44
2023/05/16 08:52:30;;;;;;;11.80;1.50;;;;;;;11.44;100.00;101066.56;7388445;19;20460;-41
2023/05/16 08:55:02;;;;;;;16.23;3.33;;;;;;;11.29;100.00;101084.88;7391034;19;20454;-39
2023/05/16 08:57:42;;;;;;;5.17;1.23;;;;;;;11.38;100.00;101074.06;7388013;19;20464;-44
2023/05/16 09:00:13;;;;;;;11.47;2.07;;;;;;;11.32;100.00;101061.75;7390874;19;20413;-42
2023/05/16 09:02:43;;;;;;;13.23;1.73;;;;;;;11.07;100.00;101068.41;7387334;19;20997;-43
2023/05/16 09:05:14;;;;;;;8.13;1.80;;;;;;;11.27;100.00;101040.00;7389770;19;20991;-41
2023/05/16 09:07:44;;;;;;;9.07;1.53;;;;;;;11.31;100.00;101075.47;7388957;19;20832;-41
2023/05/16 09:10:14;;;;;;;7.60;1.33;;;;;;;11.34;100.00;101045.50;7390925;19;20425;-42
2023/05/16 09:12:46;;;;;;;4.63;1.00;;;;;;;11.33;100.00;101086.75;7387632;19;20856;-43
2023/05/16 09:15:16;;;;;;;6.37;1.40;;;;;;;11.08;100.00;101111.50;7392376;19;20527;-41
2023/05/16 09:17:47;;;;;;;5.83;1.23;;;;;;;11.13;100.00;101099.66;7395143;19;20998;-40
2023/05/16 09:20:19;;;;;;;9.17;1.97;;;;;;;11.32;100.00;101084.97;7397642;19;20483;-42
2023/05/16 09:22:54;;;;;;;16.40;2.10;;;;;;;11.29;100.00;101096.06;7395113;19;20454;-39
2023/05/16 09:25:25;;;;;;;8.03;1.40;;;;;;;11.39;100.00;101105.09;7397390;19;20449;-40
2023/05/16 09:28:01;;;;;;;9.97;1.80;;;;;;;11.60;100.00;101110.31;7395596;19;21045;-41
2023/05/16 09:30:33;;;;;;;10.60;1.10;;;;;;;11.87;100.00;101106.28;7397321;19;20415;-42
2023/05/16 09:33:03;;;;;;;14.37;2.23;;;;;;;11.87;100.00;101102.00;7394902;19;20450;-39
2023/05/16 09:35:33;;;;;;;12.77;2.53;;;;;;;11.86;100.00;101078.66;7397527;19;20478;-45
2023/05/16 09:38:17;;;;;;;10.60;1.80;;;;;;;12.13;100.00;101073.78;7395136;19;20468;-40
2023/05/16 09:40:47;;;;;;;14.47;2.17;;;;;;;12.33;100.00;101071.09;7396331;19;20415;-42
2023/05/16 09:43:24;;;;;;;6.97;2.07;;;;;;;12.04;100.00;101126.81;7397515;19;20544;-41
2023/05/16 09:45:54;;;;;;;10.90;2.23;;;;;;;12.00;100.00;101154.22;7393233;19;20509;-40
2023/05/16 09:48:27;;;;;;;4.90;1.10;;;;;;;11.51;100.00;101155.56;7396121;19;20418;-41
2023/05/16 09:51:01;;;;;;;14.60;2.30;;;;;;;11.75;100.00;101148.88;7392887;19;20429;-40
2023/05/16 09:53:33;;;;;;;14.13;2.90;;;;;;;11.91;100.00;101126.28;7398592;19;20431;-42
2023/05/16 09:56:06;;;;;;;9.30;1.73;;;;;;;12.34;100.00;101119.44;7393028;19;20410;-42
2023/05/16 09:58:41;;;;;;;15.07;2.50;;;;;;;12.09;100.00;101125.28;7396791;19;20451;-42
2023/05/16 10:01:11;;;;;;;13.80;2.10;;;;;;;12.10;100.00;101078.81;7392857;19;21091;-42
2023/05/16 10:03:43;;;;;;;9.03;1.63;;;;;;;11.58;100.00;101083.53;7394279;19;20419;-41
2023/05/16 10:06:13;;;;;;;7.77;1.70;;;;;;;11.66;100.00;101095.91;7391836;19;20421;-39
2023/05/16 10:08:45;;;;;;;7.40;1.87;;;;;;;11.92;100.00;101125.44;7395529;19;20411;-43
2023/05/16 10:11:15;;;;;;;7.77;1.80;;;;;;;12.15;100.00;101148.81;7392191;19;20811;-44
2023/05/16 10:13:51;;;;;;;9.40;1.43;;;;;;;12.27;100.00;101158.81;7394615;19;20809;-45
2023/05/16 10:16:23;;;;;;;13.50;1.77;;;;;;;12.29;100.00;101165.81;7392602;19;20423;-42
2023/05/16 10:18:53;;;;;;;6.20;1.00;;;;;;;11.80;100.00;101150.78;7397887;19;20421;-45
2023/05/16 10:21:24;;;;;;;14.10;1.50;;;;;;;11.22;100.00;101125.03;7392371;19;20751;-43
2023/05/16 10:23:56;;;;;;;16.43;1.53;;;;;;;11.00;100.00;101099.94;7394763;19;20406;-44
2023/05/16 10:26:27;;;;;;;9.10;1.90;;;;;;;10.97;100.00;101080.00;7391287;19;20837;-42
2023/05/16 10:29:00;;;;;;;12.10;2.53;;;;;;;11.32;100.00;101051.41;7395184;19;20407;-41
2023/05/16 10:31:30;;;;;;;13.60;2.60;;;;;;;11.40;100.00;101099.13;7392424;19;20441;-40
2023/05/16 10:34:00;;;;;;;9.40;1.53;;;;;;;11.19;100.00;101117.16;7394952;19;20506;-44
2023/05/16 10:36:30;;;;;;;6.93;1.87;;;;;;;11.12;100.00;101082.41;7392651;19;20480;-41
2023/05/16 10:39:00;;;;;;;9.83;1.30;;;;;;;11.30;100.00;101061.69;7394528;19;20406;-44
2023/05/16 10:41:29;;;;;;;8.20;1.67;;;;;;;11.80;100.00;101062.88;7391443;19;21045;-44
2023/05/16 10:44:03;;;;;;;16.17;1.43;;;;;;;11.60;100.00;101091.38;7393600;19;20442;-42
2023/05/16 10:46:33;;;;;;;10.10;1.63;;;;;;;12.12;100.00;101084.03;7392129;19;22174;-42
2023/05/16 10:49:21;;;;;;;10.57;1.17;;;;;;;12.23;100.00;101128.44;7396651;19;20408;-41
2023/05/16 10:52:09;;;;;;;7.50;1.33;;;;;;;11.80;100.00;101099.94;7390175;19;20442;-44
2023/05/16 10:54:40;;;;;;;18.00;2.20;;;;;;;11.31;100.00;101058.28;7393363;19;21052;-42
2023/05/16 10:57:14;;;;;;;9.33;1.40;;;;;;;11.03;100.00;101092.34;7391717;19;20436;-41
2023/05/16 10:59:47;;;;;;;15.70;3.80;;;;;;;11.33;100.00;101072.13;7393969;19;20988;-42
2023/05/16 11:02:25;;;;;;;12.30;2.90;;;;;;;11.18;100.00;101062.03;7389797;19;20441;-42
2023/05/16 11:04:58;;;;;;;17.37;3.10;;;;;;;10.78;100.00;101049.91;7394055;19;20477;-39
2023/05/16 11:07:33;;;;;;;7.07;1.20;;;;;;;10.80;100.00;101031.09;7392128;19;20788;-44
2023/05/16 11:10:10;;;;;;;5.83;1.27;;;;;;;11.15;100.00;101017.09;7394549;19;20920;-42
2023/05/16 11:12:47;;;;;;;14.30;1.93;;;;;;;11.14;100.00;101013.66;7390627;19;20519;-40
2023/05/16 11:15:29;;;;;;;20.20;3.07;;;;;;;10.84;100.00;101002.84;7394082;19;20441;-42
2023/05/16 11:18:10;;;;;;;18.47;2.37;;;;;;;10.61;100.00;100993.25;7391971;19;20810;-43
2023/05/16 11:20:40;;;;;;;9.57;2.80;;;;;;;10.60;100.00;100988.91;7393995;19;20412;-41
2023/05/16 11:23:23;;;;;;;7.70;2.00;;;;;;;10.55;100.00;100995.53;7391604;19;20547;-45
2023/05/16 11:25:55;;;;;;;7.03;1.27;;;;;;;10.40;100.00;100996.59;7390708;19;20460;-42
2023/05/16 11:28:26;;;;;;;5.50;1.03;;;;;;;10.43;100.00;101020.78;7393736;19;20417;-40
2023/05/16 11:31:01;;;;;;;8.73;1.57;;;;;;;10.54;100.00;101029.91;7391437;19;20422;-40
2023/05/16 11:33:34;;;;;;;7.30;1.40;;;;;;;10.95;100.00;101024.84;7393404;19;20415;-42
2023/05/16 11:36:05;;;;;;;4.53;1.17;;;;;;;10.99;100.00;101077.50;7390370;19;20806;-43